sensor_id;sensor_type;location;lat;lon;timestamp;P1;durP1;ratioP1;P2;durP2;ratioP2
52057;SDS011;38063;53.210;6.504;2023-06-26T00:02:03;7.80;;;5.78;;
52057;SDS011;38063;53.210;6.504;2023-06-26T00:04:28;8.23;;;6.18;;
52057;SDS011;38063;53.210;6.504;2023-06-26T00:06:54;7.47;;;6.18;;
52057;SDS011;38063;53.210;6.504;2023-06-26T00:09:20;8.07;;;5.82;;
52057;SDS011;38063;53.210;6.504;2023-06-26T00:11:45;8.75;;;5.80;;
52057;SDS011;38063;53.210;6.504;2023-06-26T00:14:11;7.53;;;5.97;;
52057;SDS011;38063;53.210;6.504;2023-06-26T00:16:37;7.97;;;6.68;;
52057;SDS011;38063;53.210;6.504;2023-06-26T00:19:02;7.60;;;5.72;;
52057;SDS011;38063;53.210;6.504;2023-06-26T00:21:28;7.70;;;5.75;;
52057;SDS011;38063;53.210;6.504;2023-06-26T00:23:54;9.88;;;6.85;;
52057;SDS011;38063;53.210;6.504;2023-06-26T00:26:19;8.65;;;6.10;;
52057;SDS011;38063;53.210;6.504;2023-06-26T00:28:45;8.07;;;5.97;;
52057;SDS011;38063;53.210;6.504;2023-06-26T00:31:10;7.22;;;5.95;;
52057;SDS011;38063;53.210;6.504;2023-06-26T00:33:36;7.90;;;6.28;;
52057;SDS011;38063;53.210;6.504;2023-06-26T00:36:02;9.50;;;5.82;;
52057;SDS011;38063;53.210;6.504;2023-06-26T00:38:27;7.97;;;6.18;;
52057;SDS011;38063;53.210;6.504;2023-06-26T00:40:53;7.03;;;5.78;;
52057;SDS011;38063;53.210;6.504;2023-06-26T00:43:19;9.77;;;6.18;;
52057;SDS011;38063;53.210;6.504;2023-06-26T00:45:45;7.20;;;5.50;;
52057;SDS011;38063;53.210;6.504;2023-06-26T00:48:11;8.00;;;6.38;;
52057;SDS011;38063;53.210;6.504;2023-06-26T00:50:37;7.13;;;6.38;;
52057;SDS011;38063;53.210;6.504;2023-06-26T00:53:03;8.65;;;6.55;;
52057;SDS011;38063;53.210;6.504;2023-06-26T00:55:29;7.32;;;6.30;;
52057;SDS011;38063;53.210;6.504;2023-06-26T00:57:55;8.00;;;6.63;;
52057;SDS011;38063;53.210;6.504;2023-06-26T01:00:21;9.00;;;7.07;;
52057;SDS011;38063;53.210;6.504;2023-06-26T01:02:49;7.38;;;6.68;;
52057;SDS011;38063;53.210;6.504;2023-06-26T01:05:15;8.40;;;6.88;;
52057;SDS011;38063;53.210;6.504;2023-06-26T01:07:45;8.82;;;6.90;;
52057;SDS011;38063;53.210;6.504;2023-06-26T01:10:12;10.10;;;7.07;;
52057;SDS011;38063;53.210;6.504;2023-06-26T01:12:38;9.65;;;6.72;;
52057;SDS011;38063;53.210;6.504;2023-06-26T01:15:04;7.47;;;6.47;;
52057;SDS011;38063;53.210;6.504;2023-06-26T01:17:30;8.45;;;7.13;;
52057;SDS011;38063;53.210;6.504;2023-06-26T01:20:00;8.25;;;6.53;;
52057;SDS011;38063;53.210;6.504;2023-06-26T01:22:34;7.78;;;6.93;;
52057;SDS011;38063;53.210;6.504;2023-06-26T01:28:07;8.73;;;6.78;;
52057;SDS011;38063;53.210;6.504;2023-06-26T01:30:34;9.32;;;7.22;;
52057;SDS011;38063;53.210;6.504;2023-06-26T01:33:02;11.32;;;7.35;;
52057;SDS011;38063;53.210;6.504;2023-06-26T01:35:29;8.80;;;7.10;;
52057;SDS011;38063;53.210;6.504;2023-06-26T01:38:10;8.88;;;7.25;;
52057;SDS011;38063;53.210;6.504;2023-06-26T01:40:37;10.65;;;7.38;;
52057;SDS011;38063;53.210;6.504;2023-06-26T01:43:02;9.07;;;6.95;;
52057;SDS011;38063;53.210;6.504;2023-06-26T01:45:29;8.77;;;7.03;;
52057;SDS011;38063;53.210;6.504;2023-06-26T01:47:58;8.55;;;6.88;;
52057;SDS011;38063;53.210;6.504;2023-06-26T01:50:27;11.30;;;6.65;;
52057;SDS011;38063;53.210;6.504;2023-06-26T01:53:10;8.73;;;6.78;;
52057;SDS011;38063;53.210;6.504;2023-06-26T01:55:47;10.50;;;7.38;;
52057;SDS011;38063;53.210;6.504;2023-06-26T01:58:31;7.70;;;6.78;;
52057;SDS011;38063;53.210;6.504;2023-06-26T02:00:58;8.70;;;7.30;;
52057;SDS011;38063;53.210;6.504;2023-06-26T02:03:24;8.70;;;7.35;;
52057;SDS011;38063;53.210;6.504;2023-06-26T02:05:50;9.55;;;7.45;;
52057;SDS011;38063;53.210;6.504;2023-06-26T02:08:16;7.80;;;6.80;;
52057;SDS011;38063;53.210;6.504;2023-06-26T02:10:42;8.68;;;7.40;;
52057;SDS011;38063;53.210;6.504;2023-06-26T02:13:07;9.63;;;7.55;;
52057;SDS011;38063;53.210;6.504;2023-06-26T02:15:33;9.30;;;7.35;;
52057;SDS011;38063;53.210;6.504;2023-06-26T02:17:59;9.32;;;8.05;;
52057;SDS011;38063;53.210;6.504;2023-06-26T02:20:24;9.10;;;7.78;;
52057;SDS011;38063;53.210;6.504;2023-06-26T02:22:50;11.07;;;8.07;;
52057;SDS011;38063;53.210;6.504;2023-06-26T02:25:17;9.70;;;7.63;;
52057;SDS011;38063;53.210;6.504;2023-06-26T02:27:43;8.98;;;7.63;;
52057;SDS011;38063;53.210;6.504;2023-06-26T02:30:09;9.57;;;7.43;;
52057;SDS011;38063;53.210;6.504;2023-06-26T02:32:35;9.90;;;7.97;;
52057;SDS011;38063;53.210;6.504;2023-06-26T02:35:01;12.18;;;8.45;;
52057;SDS011;38063;53.210;6.504;2023-06-26T02:37:26;12.02;;;8.90;;
52057;SDS011;38063;53.210;6.504;2023-06-26T02:39:52;9.68;;;8.27;;
52057;SDS011;38063;53.210;6.504;2023-06-26T02:42:18;11.55;;;8.73;;
52057;SDS011;38063;53.210;6.504;2023-06-26T02:44:43;10.65;;;8.80;;
52057;SDS011;38063;53.210;6.504;2023-06-26T02:47:09;11.05;;;8.73;;
52057;SDS011;38063;53.210;6.504;2023-06-26T02:49:35;11.68;;;8.57;;
52057;SDS011;38063;53.210;6.504;2023-06-26T02:52:00;11.60;;;9.68;;
52057;SDS011;38063;53.210;6.504;2023-06-26T02:54:26;10.60;;;7.65;;
52057;SDS011;38063;53.210;6.504;2023-06-26T02:56:52;10.57;;;8.55;;
52057;SDS011;38063;53.210;6.504;2023-06-26T02:59:18;14.63;;;9.50;;
52057;SDS011;38063;53.210;6.504;2023-06-26T03:01:43;10.43;;;9.07;;
52057;SDS011;38063;53.210;6.504;2023-06-26T03:04:09;10.70;;;9.38;;
52057;SDS011;38063;53.210;6.504;2023-06-26T03:06:35;11.05;;;9.10;;
52057;SDS011;38063;53.210;6.504;2023-06-26T03:09:01;11.27;;;9.43;;
52057;SDS011;38063;53.210;6.504;2023-06-26T03:11:27;10.75;;;9.00;;
52057;SDS011;38063;53.210;6.504;2023-06-26T03:13:53;9.43;;;8.40;;
52057;SDS011;38063;53.210;6.504;2023-06-26T03:16:19;11.90;;;9.45;;
52057;SDS011;38063;53.210;6.504;2023-06-26T03:18:45;12.00;;;9.60;;
52057;SDS011;38063;53.210;6.504;2023-06-26T03:21:10;11.77;;;10.32;;
52057;SDS011;38063;53.210;6.504;2023-06-26T03:23:36;11.68;;;9.90;;
52057;SDS011;38063;53.210;6.504;2023-06-26T03:26:01;12.38;;;10.43;;
52057;SDS011;38063;53.210;6.504;2023-06-26T03:28:27;15.00;;;11.25;;
52057;SDS011;38063;53.210;6.504;2023-06-26T03:30:53;12.07;;;10.15;;
52057;SDS011;38063;53.210;6.504;2023-06-26T03:33:18;12.43;;;10.30;;
52057;SDS011;38063;53.210;6.504;2023-06-26T03:35:44;13.20;;;10.20;;
52057;SDS011;38063;53.210;6.504;2023-06-26T03:38:10;14.10;;;10.55;;
52057;SDS011;38063;53.210;6.504;2023-06-26T03:40:36;14.25;;;9.77;;
52057;SDS011;38063;53.210;6.504;2023-06-26T03:43:01;15.85;;;10.85;;
52057;SDS011;38063;53.210;6.504;2023-06-26T03:45:27;14.13;;;10.93;;
52057;SDS011;38063;53.210;6.504;2023-06-26T03:47:53;11.50;;;10.02;;
52057;SDS011;38063;53.210;6.504;2023-06-26T03:50:19;18.10;;;11.45;;
52057;SDS011;38063;53.210;6.504;2023-06-26T03:52:45;12.95;;;10.15;;
52057;SDS011;38063;53.210;6.504;2023-06-26T03:55:10;12.30;;;10.45;;
52057;SDS011;38063;53.210;6.504;2023-06-26T03:57:36;13.23;;;10.07;;
52057;SDS011;38063;53.210;6.504;2023-06-26T04:00:02;14.48;;;10.18;;
52057;SDS011;38063;53.210;6.504;2023-06-26T04:02:38;16.15;;;10.75;;
52057;SDS011;38063;53.210;6.504;2023-06-26T04:05:04;11.63;;;9.73;;
52057;SDS011;38063;53.210;6.504;2023-06-26T04:07:30;14.00;;;10.02;;
52057;SDS011;38063;53.210;6.504;2023-06-26T04:09:56;12.70;;;10.18;;
52057;SDS011;38063;53.210;6.504;2023-06-26T04:12:22;16.08;;;10.50;;
52057;SDS011;38063;53.210;6.504;2023-06-26T04:14:48;13.60;;;9.85;;
52057;SDS011;38063;53.210;6.504;2023-06-26T04:17:13;12.85;;;10.05;;
52057;SDS011;38063;53.210;6.504;2023-06-26T04:19:39;13.00;;;10.05;;
52057;SDS011;38063;53.210;6.504;2023-06-26T04:22:08;15.10;;;9.80;;
52057;SDS011;38063;53.210;6.504;2023-06-26T04:24:34;12.60;;;9.95;;
52057;SDS011;38063;53.210;6.504;2023-06-26T04:26:59;13.85;;;9.75;;
52057;SDS011;38063;53.210;6.504;2023-06-26T04:29:28;13.95;;;8.40;;
52057;SDS011;38063;53.210;6.504;2023-06-26T04:31:54;14.25;;;8.50;;
52057;SDS011;38063;53.210;6.504;2023-06-26T04:34:28;10.18;;;7.80;;
52057;SDS011;38063;53.210;6.504;2023-06-26T04:36:57;10.52;;;8.07;;
52057;SDS011;38063;53.210;6.504;2023-06-26T04:39:23;13.00;;;7.85;;
52057;SDS011;38063;53.210;6.504;2023-06-26T04:41:48;13.50;;;7.70;;
52057;SDS011;38063;53.210;6.504;2023-06-26T04:44:14;9.45;;;6.97;;
52057;SDS011;38063;53.210;6.504;2023-06-26T04:46:40;11.07;;;7.20;;
52057;SDS011;38063;53.210;6.504;2023-06-26T04:49:08;10.25;;;7.43;;
52057;SDS011;38063;53.210;6.504;2023-06-26T04:51:34;14.48;;;7.45;;
52057;SDS011;38063;53.210;6.504;2023-06-26T04:54:06;12.35;;;7.55;;
52057;SDS011;38063;53.210;6.504;2023-06-26T04:56:33;11.90;;;7.72;;
52057;SDS011;38063;53.210;6.504;2023-06-26T04:58:58;18.75;;;7.97;;
52057;SDS011;38063;53.210;6.504;2023-06-26T05:01:24;10.90;;;7.35;;
52057;SDS011;38063;53.210;6.504;2023-06-26T05:03:50;14.23;;;8.38;;
52057;SDS011;38063;53.210;6.504;2023-06-26T05:06:15;14.65;;;8.25;;
52057;SDS011;38063;53.210;6.504;2023-06-26T05:08:41;12.80;;;9.35;;
52057;SDS011;38063;53.210;6.504;2023-06-26T05:11:06;18.35;;;8.73;;
52057;SDS011;38063;53.210;6.504;2023-06-26T05:13:32;15.18;;;9.68;;
52057;SDS011;38063;53.210;6.504;2023-06-26T05:15:58;19.10;;;10.15;;
52057;SDS011;38063;53.210;6.504;2023-06-26T05:18:23;17.42;;;9.80;;
52057;SDS011;38063;53.210;6.504;2023-06-26T05:20:49;22.30;;;10.60;;
52057;SDS011;38063;53.210;6.504;2023-06-26T05:23:15;20.38;;;10.40;;
52057;SDS011;38063;53.210;6.504;2023-06-26T05:25:41;22.50;;;10.00;;
52057;SDS011;38063;53.210;6.504;2023-06-26T05:28:07;17.88;;;9.68;;
52057;SDS011;38063;53.210;6.504;2023-06-26T05:30:35;17.58;;;9.07;;
52057;SDS011;38063;53.210;6.504;2023-06-26T05:33:01;16.10;;;8.07;;
52057;SDS011;38063;53.210;6.504;2023-06-26T05:35:28;15.93;;;7.65;;
52057;SDS011;38063;53.210;6.504;2023-06-26T05:37:55;14.10;;;6.53;;
52057;SDS011;38063;53.210;6.504;2023-06-26T05:40:22;16.52;;;6.78;;
52057;SDS011;38063;53.210;6.504;2023-06-26T05:42:48;15.35;;;6.80;;
52057;SDS011;38063;53.210;6.504;2023-06-26T05:45:14;12.75;;;6.10;;
52057;SDS011;38063;53.210;6.504;2023-06-26T05:47:40;14.32;;;6.22;;
52057;SDS011;38063;53.210;6.504;2023-06-26T05:50:07;14.75;;;5.63;;
52057;SDS011;38063;53.210;6.504;2023-06-26T05:52:34;13.70;;;5.07;;
52057;SDS011;38063;53.210;6.504;2023-06-26T05:55:00;18.52;;;5.55;;
52057;SDS011;38063;53.210;6.504;2023-06-26T05:57:26;13.45;;;5.03;;
52057;SDS011;38063;53.210;6.504;2023-06-26T05:59:53;12.65;;;4.93;;
52057;SDS011;38063;53.210;6.504;2023-06-26T06:02:19;13.98;;;5.05;;
52057;SDS011;38063;53.210;6.504;2023-06-26T06:04:45;15.88;;;4.60;;
52057;SDS011;38063;53.210;6.504;2023-06-26T06:07:11;16.85;;;4.65;;
52057;SDS011;38063;53.210;6.504;2023-06-26T06:09:37;14.43;;;4.30;;
52057;SDS011;38063;53.210;6.504;2023-06-26T06:12:04;10.73;;;4.65;;
52057;SDS011;38063;53.210;6.504;2023-06-26T06:14:31;15.52;;;4.63;;
52057;SDS011;38063;53.210;6.504;2023-06-26T06:16:57;15.52;;;3.78;;
52057;SDS011;38063;53.210;6.504;2023-06-26T06:19:23;10.63;;;4.22;;
52057;SDS011;38063;53.210;6.504;2023-06-26T06:21:48;16.92;;;4.25;;
52057;SDS011;38063;53.210;6.504;2023-06-26T06:24:14;11.23;;;4.18;;
52057;SDS011;38063;53.210;6.504;2023-06-26T06:26:39;13.48;;;3.30;;
52057;SDS011;38063;53.210;6.504;2023-06-26T06:29:05;13.13;;;4.30;;
52057;SDS011;38063;53.210;6.504;2023-06-26T06:31:31;11.57;;;3.58;;
52057;SDS011;38063;53.210;6.504;2023-06-26T06:33:57;12.00;;;3.65;;
52057;SDS011;38063;53.210;6.504;2023-06-26T06:36:22;10.73;;;3.42;;
52057;SDS011;38063;53.210;6.504;2023-06-26T06:38:48;12.50;;;3.75;;
52057;SDS011;38063;53.210;6.504;2023-06-26T06:41:14;10.05;;;3.08;;
52057;SDS011;38063;53.210;6.504;2023-06-26T06:43:40;11.25;;;3.00;;
52057;SDS011;38063;53.210;6.504;2023-06-26T06:46:06;9.63;;;3.13;;
52057;SDS011;38063;53.210;6.504;2023-06-26T06:48:31;9.68;;;2.90;;
52057;SDS011;38063;53.210;6.504;2023-06-26T06:50:57;9.13;;;2.70;;
52057;SDS011;38063;53.210;6.504;2023-06-26T06:53:23;11.77;;;3.38;;
52057;SDS011;38063;53.210;6.504;2023-06-26T06:55:49;7.72;;;2.53;;
52057;SDS011;38063;53.210;6.504;2023-06-26T06:58:15;11.32;;;2.75;;
52057;SDS011;38063;53.210;6.504;2023-06-26T07:00:48;9.98;;;2.88;;
52057;SDS011;38063;53.210;6.504;2023-06-26T07:03:14;9.85;;;2.38;;
52057;SDS011;38063;53.210;6.504;2023-06-26T07:05:42;7.35;;;2.70;;
52057;SDS011;38063;53.210;6.504;2023-06-26T07:08:08;6.50;;;2.00;;
52057;SDS011;38063;53.210;6.504;2023-06-26T07:10:34;7.43;;;2.22;;
52057;SDS011;38063;53.210;6.504;2023-06-26T07:13:00;5.70;;;1.85;;
52057;SDS011;38063;53.210;6.504;2023-06-26T07:15:25;4.65;;;1.90;;
52057;SDS011;38063;53.210;6.504;2023-06-26T07:17:52;4.35;;;1.65;;
52057;SDS011;38063;53.210;6.504;2023-06-26T07:20:17;8.50;;;2.00;;
52057;SDS011;38063;53.210;6.504;2023-06-26T07:22:43;6.97;;;2.05;;
52057;SDS011;38063;53.210;6.504;2023-06-26T07:25:12;10.13;;;2.10;;
52057;SDS011;38063;53.210;6.504;2023-06-26T07:27:38;6.20;;;2.05;;
52057;SDS011;38063;53.210;6.504;2023-06-26T07:30:05;6.63;;;1.80;;
52057;SDS011;38063;53.210;6.504;2023-06-26T07:32:33;5.43;;;1.50;;
52057;SDS011;38063;53.210;6.504;2023-06-26T07:34:59;8.88;;;2.38;;
52057;SDS011;38063;53.210;6.504;2023-06-26T07:37:25;9.88;;;1.83;;
52057;SDS011;38063;53.210;6.504;2023-06-26T07:39:51;5.50;;;1.95;;
52057;SDS011;38063;53.210;6.504;2023-06-26T07:42:17;4.00;;;1.65;;
52057;SDS011;38063;53.210;6.504;2023-06-26T07:44:42;5.65;;;2.00;;
52057;SDS011;38063;53.210;6.504;2023-06-26T07:47:08;9.73;;;1.92;;
52057;SDS011;38063;53.210;6.504;2023-06-26T07:49:34;3.78;;;1.58;;
52057;SDS011;38063;53.210;6.504;2023-06-26T07:52:00;3.25;;;1.40;;
52057;SDS011;38063;53.210;6.504;2023-06-26T07:54:26;4.90;;;1.15;;
52057;SDS011;38063;53.210;6.504;2023-06-26T07:56:56;6.57;;;1.67;;
52057;SDS011;38063;53.210;6.504;2023-06-26T07:59:22;4.72;;;1.58;;
52057;SDS011;38063;53.210;6.504;2023-06-26T08:01:50;5.93;;;1.80;;
52057;SDS011;38063;53.210;6.504;2023-06-26T08:04:17;5.00;;;1.70;;
52057;SDS011;38063;53.210;6.504;2023-06-26T08:06:45;4.40;;;1.50;;
52057;SDS011;38063;53.210;6.504;2023-06-26T08:09:12;7.15;;;1.50;;
52057;SDS011;38063;53.210;6.504;2023-06-26T08:11:38;4.45;;;1.60;;
52057;SDS011;38063;53.210;6.504;2023-06-26T08:14:04;3.20;;;1.27;;
52057;SDS011;38063;53.210;6.504;2023-06-26T08:16:29;4.30;;;1.67;;
52057;SDS011;38063;53.210;6.504;2023-06-26T08:18:55;3.40;;;1.40;;
52057;SDS011;38063;53.210;6.504;2023-06-26T08:21:21;3.33;;;1.38;;
52057;SDS011;38063;53.210;6.504;2023-06-26T08:23:46;4.63;;;1.40;;
52057;SDS011;38063;53.210;6.504;2023-06-26T08:26:13;4.43;;;1.73;;
52057;SDS011;38063;53.210;6.504;2023-06-26T08:28:39;6.18;;;1.88;;
52057;SDS011;38063;53.210;6.504;2023-06-26T08:31:04;5.80;;;1.50;;
52057;SDS011;38063;53.210;6.504;2023-06-26T08:33:30;4.72;;;1.98;;
52057;SDS011;38063;53.210;6.504;2023-06-26T08:35:56;7.45;;;1.90;;
52057;SDS011;38063;53.210;6.504;2023-06-26T08:38:21;5.43;;;1.67;;
52057;SDS011;38063;53.210;6.504;2023-06-26T08:40:47;8.57;;;2.00;;
52057;SDS011;38063;53.210;6.504;2023-06-26T08:43:13;6.32;;;1.80;;
52057;SDS011;38063;53.210;6.504;2023-06-26T08:45:38;4.72;;;1.60;;
52057;SDS011;38063;53.210;6.504;2023-06-26T08:48:06;4.65;;;1.63;;
52057;SDS011;38063;53.210;6.504;2023-06-26T08:50:34;5.57;;;1.60;;
52057;SDS011;38063;53.210;6.504;2023-06-26T08:56:16;4.60;;;2.10;;
52057;SDS011;38063;53.210;6.504;2023-06-26T08:58:45;7.72;;;1.70;;
52057;SDS011;38063;53.210;6.504;2023-06-26T09:01:11;3.80;;;1.60;;
52057;SDS011;38063;53.210;6.504;2023-06-26T09:03:38;3.30;;;1.50;;
52057;SDS011;38063;53.210;6.504;2023-06-26T09:06:03;4.88;;;2.03;;
52057;SDS011;38063;53.210;6.504;2023-06-26T09:08:29;4.57;;;1.75;;
52057;SDS011;38063;53.210;6.504;2023-06-26T09:10:55;6.05;;;1.90;;
52057;SDS011;38063;53.210;6.504;2023-06-26T09:13:21;4.80;;;2.10;;
52057;SDS011;38063;53.210;6.504;2023-06-26T09:15:47;4.53;;;1.70;;
52057;SDS011;38063;53.210;6.504;2023-06-26T09:18:12;2.25;;;1.30;;
52057;SDS011;38063;53.210;6.504;2023-06-26T09:20:41;4.80;;;2.22;;
52057;SDS011;38063;53.210;6.504;2023-06-26T09:23:07;5.30;;;1.73;;
52057;SDS011;38063;53.210;6.504;2023-06-26T09:25:33;6.15;;;1.90;;
52057;SDS011;38063;53.210;6.504;2023-06-26T09:27:59;6.00;;;1.73;;
52057;SDS011;38063;53.210;6.504;2023-06-26T09:30:24;5.35;;;1.50;;
52057;SDS011;38063;53.210;6.504;2023-06-26T09:32:50;4.65;;;1.85;;
52057;SDS011;38063;53.210;6.504;2023-06-26T09:35:16;5.78;;;1.90;;
52057;SDS011;38063;53.210;6.504;2023-06-26T09:37:42;5.65;;;2.10;;
52057;SDS011;38063;53.210;6.504;2023-06-26T09:40:08;5.82;;;2.10;;
52057;SDS011;38063;53.210;6.504;2023-06-26T09:42:34;4.40;;;2.13;;
52057;SDS011;38063;53.210;6.504;2023-06-26T09:45:01;6.22;;;2.05;;
52057;SDS011;38063;53.210;6.504;2023-06-26T09:47:29;4.32;;;2.05;;
52057;SDS011;38063;53.210;6.504;2023-06-26T09:49:56;6.68;;;2.55;;
52057;SDS011;38063;53.210;6.504;2023-06-26T09:52:25;8.48;;;2.35;;
52057;SDS011;38063;53.210;6.504;2023-06-26T09:54:52;6.50;;;2.17;;
52057;SDS011;38063;53.210;6.504;2023-06-26T09:57:34;5.50;;;2.50;;
52057;SDS011;38063;53.210;6.504;2023-06-26T10:00:01;5.55;;;2.40;;
52057;SDS011;38063;53.210;6.504;2023-06-26T10:02:27;5.63;;;2.28;;
52057;SDS011;38063;53.210;6.504;2023-06-26T10:04:53;4.93;;;2.30;;
52057;SDS011;38063;53.210;6.504;2023-06-26T10:07:19;3.75;;;1.98;;
52057;SDS011;38063;53.210;6.504;2023-06-26T10:09:47;5.03;;;1.90;;
52057;SDS011;38063;53.210;6.504;2023-06-26T10:12:26;3.80;;;2.10;;
52057;SDS011;38063;53.210;6.504;2023-06-26T10:14:55;7.68;;;2.30;;
52057;SDS011;38063;53.210;6.504;2023-06-26T10:17:22;3.63;;;2.10;;
52057;SDS011;38063;53.210;6.504;2023-06-26T10:19:52;3.38;;;2.00;;
52057;SDS011;38063;53.210;6.504;2023-06-26T10:22:21;4.90;;;2.15;;
52057;SDS011;38063;53.210;6.504;2023-06-26T10:24:52;6.28;;;2.30;;
52057;SDS011;38063;53.210;6.504;2023-06-26T10:27:24;4.40;;;2.38;;
52057;SDS011;38063;53.210;6.504;2023-06-26T10:29:55;4.38;;;2.25;;
52057;SDS011;38063;53.210;6.504;2023-06-26T10:32:25;4.47;;;2.20;;
52057;SDS011;38063;53.210;6.504;2023-06-26T10:34:51;4.30;;;2.22;;
52057;SDS011;38063;53.210;6.504;2023-06-26T10:37:18;5.65;;;2.17;;
52057;SDS011;38063;53.210;6.504;2023-06-26T10:39:47;3.47;;;1.92;;
52057;SDS011;38063;53.210;6.504;2023-06-26T10:42:19;6.18;;;2.53;;
52057;SDS011;38063;53.210;6.504;2023-06-26T10:45:08;6.20;;;2.53;;
52057;SDS011;38063;53.210;6.504;2023-06-26T10:47:48;5.85;;;2.22;;
52057;SDS011;38063;53.210;6.504;2023-06-26T10:50:25;3.30;;;2.13;;
52057;SDS011;38063;53.210;6.504;2023-06-26T10:56:00;7.10;;;2.60;;
52057;SDS011;38063;53.210;6.504;2023-06-26T10:58:28;3.83;;;2.03;;
52057;SDS011;38063;53.210;6.504;2023-06-26T11:03:37;6.38;;;1.85;;
52057;SDS011;38063;53.210;6.504;2023-06-26T11:08:48;6.07;;;1.60;;
52057;SDS011;38063;53.210;6.504;2023-06-26T11:11:16;8.80;;;2.13;;
52057;SDS011;38063;53.210;6.504;2023-06-26T11:13:42;4.97;;;1.73;;
52057;SDS011;38063;53.210;6.504;2023-06-26T11:16:14;6.20;;;2.20;;
52057;SDS011;38063;53.210;6.504;2023-06-26T11:18:40;11.95;;;2.13;;
52057;SDS011;38063;53.210;6.504;2023-06-26T11:21:07;4.97;;;1.60;;
52057;SDS011;38063;53.210;6.504;2023-06-26T11:23:34;7.72;;;1.70;;
52057;SDS011;38063;53.210;6.504;2023-06-26T11:26:17;5.63;;;1.40;;
52057;SDS011;38063;53.210;6.504;2023-06-26T11:28:56;6.57;;;1.77;;
52057;SDS011;38063;53.210;6.504;2023-06-26T11:31:25;4.97;;;1.70;;
52057;SDS011;38063;53.210;6.504;2023-06-26T11:33:53;4.50;;;1.75;;
52057;SDS011;38063;53.210;6.504;2023-06-26T11:36:19;6.43;;;1.60;;
52057;SDS011;38063;53.210;6.504;2023-06-26T11:38:52;4.07;;;1.50;;
52057;SDS011;38063;53.210;6.504;2023-06-26T11:41:18;4.50;;;1.40;;
52057;SDS011;38063;53.210;6.504;2023-06-26T11:43:44;4.30;;;1.50;;
52057;SDS011;38063;53.210;6.504;2023-06-26T11:46:10;4.88;;;1.40;;
52057;SDS011;38063;53.210;6.504;2023-06-26T11:48:35;6.00;;;1.48;;
52057;SDS011;38063;53.210;6.504;2023-06-26T11:51:04;3.40;;;1.48;;
52057;SDS011;38063;53.210;6.504;2023-06-26T11:53:30;7.85;;;1.58;;
52057;SDS011;38063;53.210;6.504;2023-06-26T11:55:56;4.13;;;1.20;;
52057;SDS011;38063;53.210;6.504;2023-06-26T11:58:22;9.15;;;1.58;;
52057;SDS011;38063;53.210;6.504;2023-06-26T12:00:48;4.43;;;1.20;;
52057;SDS011;38063;53.210;6.504;2023-06-26T12:03:14;9.45;;;2.10;;
52057;SDS011;38063;53.210;6.504;2023-06-26T12:05:40;7.05;;;1.50;;
52057;SDS011;38063;53.210;6.504;2023-06-26T12:08:10;5.63;;;1.48;;
52057;SDS011;38063;53.210;6.504;2023-06-26T12:10:36;5.47;;;1.42;;
52057;SDS011;38063;53.210;6.504;2023-06-26T12:13:02;5.78;;;1.67;;
52057;SDS011;38063;53.210;6.504;2023-06-26T12:15:27;13.77;;;1.70;;
52057;SDS011;38063;53.210;6.504;2023-06-26T12:17:53;7.93;;;1.73;;
52057;SDS011;38063;53.210;6.504;2023-06-26T12:20:20;8.32;;;1.83;;
52057;SDS011;38063;53.210;6.504;2023-06-26T12:22:47;6.60;;;1.70;;
52057;SDS011;38063;53.210;6.504;2023-06-26T12:25:13;4.75;;;1.65;;
52057;SDS011;38063;53.210;6.504;2023-06-26T12:27:40;8.00;;;1.55;;
52057;SDS011;38063;53.210;6.504;2023-06-26T12:30:06;6.15;;;1.50;;
52057;SDS011;38063;53.210;6.504;2023-06-26T12:32:32;8.48;;;1.75;;
52057;SDS011;38063;53.210;6.504;2023-06-26T12:34:59;5.35;;;1.35;;
52057;SDS011;38063;53.210;6.504;2023-06-26T12:37:26;5.85;;;1.40;;
52057;SDS011;38063;53.210;6.504;2023-06-26T12:39:55;3.00;;;1.20;;
52057;SDS011;38063;53.210;6.504;2023-06-26T12:42:25;3.90;;;1.23;;
52057;SDS011;38063;53.210;6.504;2023-06-26T12:44:52;6.47;;;1.15;;
52057;SDS011;38063;53.210;6.504;2023-06-26T12:47:28;7.13;;;1.35;;
52057;SDS011;38063;53.210;6.504;2023-06-26T12:49:56;6.90;;;1.80;;
52057;SDS011;38063;53.210;6.504;2023-06-26T12:52:22;8.40;;;1.50;;
52057;SDS011;38063;53.210;6.504;2023-06-26T12:54:52;5.93;;;1.75;;
52057;SDS011;38063;53.210;6.504;2023-06-26T12:57:19;7.80;;;1.45;;
52057;SDS011;38063;53.210;6.504;2023-06-26T12:59:45;6.03;;;1.45;;
52057;SDS011;38063;53.210;6.504;2023-06-26T13:02:10;5.32;;;1.30;;
52057;SDS011;38063;53.210;6.504;2023-06-26T13:04:37;12.80;;;2.47;;
52057;SDS011;38063;53.210;6.504;2023-06-26T13:07:09;8.60;;;1.48;;
52057;SDS011;38063;53.210;6.504;2023-06-26T13:09:35;8.02;;;1.48;;
52057;SDS011;38063;53.210;6.504;2023-06-26T13:12:01;7.40;;;1.45;;
52057;SDS011;38063;53.210;6.504;2023-06-26T13:14:31;7.60;;;1.67;;
52057;SDS011;38063;53.210;6.504;2023-06-26T13:16:58;9.95;;;1.52;;
52057;SDS011;38063;53.210;6.504;2023-06-26T13:19:25;5.32;;;1.30;;
52057;SDS011;38063;53.210;6.504;2023-06-26T13:21:50;9.93;;;2.35;;
52057;SDS011;38063;53.210;6.504;2023-06-26T13:24:16;4.25;;;1.23;;
52057;SDS011;38063;53.210;6.504;2023-06-26T13:26:42;6.40;;;1.20;;
52057;SDS011;38063;53.210;6.504;2023-06-26T13:29:09;4.07;;;1.50;;
52057;SDS011;38063;53.210;6.504;2023-06-26T13:31:34;5.07;;;1.50;;
52057;SDS011;38063;53.210;6.504;2023-06-26T13:34:01;3.72;;;1.50;;
52057;SDS011;38063;53.210;6.504;2023-06-26T13:36:29;3.22;;;1.20;;
52057;SDS011;38063;53.210;6.504;2023-06-26T13:38:54;4.25;;;1.15;;
52057;SDS011;38063;53.210;6.504;2023-06-26T13:41:23;4.10;;;1.33;;
52057;SDS011;38063;53.210;6.504;2023-06-26T13:43:49;3.95;;;1.27;;
52057;SDS011;38063;53.210;6.504;2023-06-26T13:46:16;7.07;;;1.25;;
52057;SDS011;38063;53.210;6.504;2023-06-26T13:48:42;6.75;;;1.10;;
52057;SDS011;38063;53.210;6.504;2023-06-26T13:51:09;6.35;;;1.50;;
52057;SDS011;38063;53.210;6.504;2023-06-26T13:53:34;7.82;;;2.30;;
52057;SDS011;38063;53.210;6.504;2023-06-26T13:56:00;4.95;;;1.63;;
52057;SDS011;38063;53.210;6.504;2023-06-26T13:58:26;5.68;;;1.52;;
52057;SDS011;38063;53.210;6.504;2023-06-26T14:00:53;5.25;;;1.80;;
52057;SDS011;38063;53.210;6.504;2023-06-26T14:03:19;4.03;;;1.45;;
52057;SDS011;38063;53.210;6.504;2023-06-26T14:05:44;4.88;;;1.90;;
52057;SDS011;38063;53.210;6.504;2023-06-26T14:08:10;6.30;;;1.77;;
52057;SDS011;38063;53.210;6.504;2023-06-26T14:10:36;6.85;;;1.73;;
52057;SDS011;38063;53.210;6.504;2023-06-26T14:13:03;7.07;;;1.60;;
52057;SDS011;38063;53.210;6.504;2023-06-26T14:15:29;7.38;;;1.67;;
52057;SDS011;38063;53.210;6.504;2023-06-26T14:17:55;7.53;;;1.80;;
52057;SDS011;38063;53.210;6.504;2023-06-26T14:20:21;4.95;;;1.50;;
52057;SDS011;38063;53.210;6.504;2023-06-26T14:22:47;8.93;;;1.50;;
52057;SDS011;38063;53.210;6.504;2023-06-26T14:25:14;3.20;;;1.20;;
52057;SDS011;38063;53.210;6.504;2023-06-26T14:27:41;7.68;;;1.63;;
52057;SDS011;38063;53.210;6.504;2023-06-26T14:30:07;5.03;;;1.20;;
52057;SDS011;38063;53.210;6.504;2023-06-26T14:32:33;5.80;;;1.40;;
52057;SDS011;38063;53.210;6.504;2023-06-26T14:35:00;2.80;;;1.00;;
52057;SDS011;38063;53.210;6.504;2023-06-26T14:37:26;2.30;;;0.98;;
52057;SDS011;38063;53.210;6.504;2023-06-26T14:39:54;5.25;;;1.30;;
52057;SDS011;38063;53.210;6.504;2023-06-26T14:42:20;6.38;;;1.30;;
52057;SDS011;38063;53.210;6.504;2023-06-26T14:44:45;3.92;;;1.20;;
52057;SDS011;38063;53.210;6.504;2023-06-26T14:47:18;6.18;;;1.35;;
52057;SDS011;38063;53.210;6.504;2023-06-26T14:49:44;7.28;;;1.40;;
52057;SDS011;38063;53.210;6.504;2023-06-26T14:52:10;7.22;;;1.88;;
52057;SDS011;38063;53.210;6.504;2023-06-26T14:54:36;3.88;;;1.52;;
52057;SDS011;38063;53.210;6.504;2023-06-26T14:57:05;5.38;;;1.50;;